createdAt,value
2023-04-03T04:34:19.746Z,-18.10
2023-04-03T04:39:24.354Z,-18.04
2023-04-03T04:44:28.180Z,-18.07
2023-04-03T04:49:33.191Z,-17.93
2023-04-03T04:54:37.496Z,-17.92
2023-04-03T04:59:40.906Z,-17.53
2023-04-03T05:04:46.310Z,-16.64
2023-04-03T05:09:56.263Z,-15.90
2023-04-03T05:15:00.604Z,-15.34
2023-04-03T05:20:08.514Z,-14.22
2023-04-03T05:25:12.300Z,-13.93
2023-04-03T05:30:19.477Z,-13.62
2023-04-03T05:35:27.295Z,-13.30
2023-04-03T05:40:34.594Z,-13.10
2023-04-03T05:45:38.373Z,-12.00
2023-04-03T05:50:43.453Z,-12.54
2023-04-03T05:55:51.345Z,-12.60
2023-04-03T06:06:44.306Z,-12.10
2023-04-03T06:11:48.081Z,-11.86
2023-04-03T06:16:52.670Z,-11.44
2023-04-03T06:21:58.229Z,-11.79
2023-04-03T06:27:01.749Z,-11.62
2023-04-03T06:32:05.159Z,-11.61
2023-04-03T06:37:17.290Z,-11.70
2023-04-03T06:42:20.660Z,-11.80
2023-04-03T06:47:31.298Z,-11.62
2023-04-03T06:52:37.654Z,-11.62
2023-04-03T06:57:43.155Z,-12.01
2023-04-03T07:02:46.621Z,-11.91
2023-04-03T07:07:52.304Z,-11.89
2023-04-03T07:12:55.846Z,-13.16
2023-04-03T07:17:59.396Z,-13.41
2023-04-03T07:23:04.384Z,-13.42
2023-04-03T07:28:09.174Z,-13.14
2023-04-03T07:33:12.707Z,-12.90
2023-04-03T07:38:19.226Z,-12.55
2023-04-03T07:43:23.147Z,-12.49
2023-04-03T07:48:27.520Z,-12.40
2023-04-03T07:53:32.540Z,-12.31
2023-04-03T07:58:39.479Z,-12.71
2023-04-03T08:03:43.000Z,-13.01
2023-04-03T08:08:48.136Z,-13.04
2023-04-03T08:13:53.624Z,-13.21
2023-04-03T08:18:57.395Z,-13.23
2023-04-03T08:24:05.361Z,-13.15
2023-04-03T08:29:11.604Z,-13.19
2023-04-03T08:34:15.695Z,-13.47
2023-04-03T08:39:20.736Z,-13.18
2023-04-03T08:44:27.266Z,-13.02
2023-04-03T08:49:33.494Z,-12.89
2023-04-03T08:54:43.264Z,-12.96
2023-04-03T08:59:46.993Z,-12.92
2023-04-03T09:04:52.462Z,-12.74
2023-04-03T09:10:02.189Z,-12.18
2023-04-03T09:15:13.149Z,-11.54
2023-04-03T09:20:21.461Z,-11.80
2023-04-03T09:25:27.712Z,-11.72
2023-04-03T09:30:31.362Z,-11.64
2023-04-03T09:35:48.105Z,-11.27
2023-04-03T09:41:04.743Z,-10.92
2023-04-03T09:46:27.394Z,-11.31
2023-04-03T09:51:32.149Z,-11.33
2023-04-03T09:56:37.729Z,-11.29
2023-04-03T10:01:44.010Z,-11.45
2023-04-03T10:06:48.629Z,-11.52
2023-04-03T10:12:06.707Z,-11.47
2023-04-03T10:17:20.894Z,-11.55
2023-04-03T10:22:30.432Z,-11.30
2023-04-03T10:27:39.761Z,-11.36
2023-04-03T10:32:57.039Z,-11.42
2023-04-03T10:38:05.128Z,-10.98
2023-04-03T10:43:12.212Z,-11.11
2023-04-03T10:48:19.986Z,-10.82
2023-04-03T10:53:28.091Z,-11.01
2023-04-03T10:58:34.679Z,-11.28
2023-04-03T11:03:41.777Z,-11.38
2023-04-03T11:08:47.873Z,-11.26
2023-04-03T11:13:55.522Z,-11.06
2023-04-03T11:19:01.797Z,-11.14
2023-04-03T11:24:08.684Z,-11.30
2023-04-03T11:29:28.181Z,-11.50
2023-04-03T11:34:41.268Z,-11.50
2023-04-03T11:39:55.805Z,-11.50
2023-04-03T11:45:26.127Z,-11.51
2023-04-03T11:50:33.536Z,-11.75
2023-04-03T11:55:51.764Z,-11.78
2023-04-03T12:00:58.048Z,-11.75
2023-04-03T12:06:23.371Z,-11.81
2023-04-03T12:11:30.822Z,-11.76
2023-04-03T12:16:45.032Z,-11.70
2023-04-03T12:22:08.912Z,-11.76
2023-04-03T12:27:34.067Z,-11.68
2023-04-03T12:32:52.026Z,-11.36
2023-04-03T12:38:16.394Z,-11.18
2023-04-03T12:43:28.637Z,-11.34
2023-04-03T12:48:35.910Z,-11.34
2023-04-03T12:53:40.532Z,-11.60
2023-04-03T12:58:44.115Z,-11.58
2023-04-03T13:03:50.214Z,-11.54
2023-04-03T13:08:54.608Z,-11.63
2023-04-03T13:14:01.777Z,-11.31
2023-04-03T13:19:06.518Z,-11.02
2023-04-03T13:24:15.401Z,-11.21
2023-04-03T13:29:30.947Z,-11.08
2023-04-03T13:34:39.909Z,-11.33
2023-04-03T13:39:43.484Z,-11.64
2023-04-03T13:44:48.874Z,-11.60
2023-04-03T13:50:04.499Z,-11.61
2023-04-03T13:55:24.663Z,-11.35
2023-04-03T14:00:32.480Z,-11.69
2023-04-03T14:05:37.436Z,-11.38
2023-04-03T14:10:41.123Z,-11.51
2023-04-03T14:15:45.103Z,-11.37
2023-04-03T14:20:50.496Z,-11.31
2023-04-03T14:25:54.333Z,-11.95
2023-04-03T14:30:57.755Z,-11.42
2023-04-03T14:36:03.262Z,-11.67
2023-04-03T14:41:16.153Z,-11.85
2023-04-03T14:46:43.107Z,-11.84
2023-04-03T14:51:56.829Z,-11.96
2023-04-03T14:57:01.385Z,-12.07
2023-04-03T15:02:08.141Z,-11.74
2023-04-03T15:07:13.089Z,-12.09
2023-04-03T15:12:16.546Z,-12.20
2023-04-03T15:17:22.064Z,-12.25
2023-04-03T15:22:29.096Z,-12.27
2023-04-03T15:27:32.737Z,-12.23
2023-04-03T15:32:36.635Z,-12.06
2023-04-03T15:37:42.676Z,-12.07
2023-04-03T15:42:48.085Z,-12.30
2023-04-03T15:47:51.781Z,-12.43
2023-04-03T15:53:00.059Z,-12.53
2023-04-03T15:58:06.452Z,-12.56
2023-04-03T16:03:11.655Z,-12.25
2023-04-03T16:08:17.351Z,-11.96
2023-04-03T16:13:20.966Z,-11.56
2023-04-03T16:18:24.547Z,-11.89
2023-04-03T16:23:29.396Z,-12.11
2023-04-03T16:28:32.810Z,-12.22
2023-04-03T16:33:36.470Z,-12.20
2023-04-03T16:38:41.391Z,-12.39
2023-04-03T16:43:44.957Z,-12.39
2023-04-03T16:48:48.755Z,-12.28
2023-04-03T16:53:55.978Z,-12.62
2023-04-03T16:58:59.566Z,-12.35
2023-04-03T17:04:05.259Z,-12.55
2023-04-03T17:09:10.861Z,-12.75
2023-04-03T17:14:14.196Z,-12.82
2023-04-03T17:19:18.027Z,-12.81
2023-04-03T17:24:22.807Z,-12.79
2023-04-03T17:29:26.251Z,-12.87
2023-04-03T17:34:29.560Z,-12.88
2023-04-03T17:39:34.427Z,-12.96
2023-04-03T17:44:37.853Z,-13.10
2023-04-03T17:49:41.350Z,-13.27
2023-04-03T17:54:46.368Z,-13.31
2023-04-03T17:59:49.764Z,-13.28
2023-04-03T18:04:54.092Z,-13.37
2023-04-03T18:10:04.972Z,-13.61
2023-04-03T18:15:08.805Z,-13.56
2023-04-03T18:20:15.172Z,-13.66
2023-04-03T18:25:20.904Z,-13.75
2023-04-03T18:30:26.480Z,-13.80
2023-04-03T18:35:32.903Z,-13.91
2023-04-03T18:40:38.136Z,-13.81
2023-04-03T18:45:44.581Z,-13.92
2023-04-03T18:50:48.710Z,-13.95
2023-04-03T18:55:54.629Z,-13.94
2023-04-03T19:00:59.283Z,-13.94
2023-04-03T19:06:03.800Z,-13.93
2023-04-03T19:11:08.713Z,-13.82
2023-04-03T19:16:15.036Z,-13.96
2023-04-03T19:21:18.871Z,-14.03
2023-04-03T19:26:23.836Z,-14.03
2023-04-03T19:31:27.236Z,-14.07
2023-04-03T19:36:30.620Z,-14.17
2023-04-03T19:41:37.030Z,-14.08
2023-04-03T19:46:40.697Z,-14.23
2023-04-03T19:51:55.777Z,-14.24
2023-04-03T19:57:00.851Z,-14.38
2023-04-03T20:02:04.812Z,-14.35
2023-04-03T20:07:08.401Z,-14.49
2023-04-03T20:12:13.430Z,-14.59
2023-04-03T20:17:16.944Z,-14.73
2023-04-03T20:22:20.561Z,-14.88
2023-04-03T20:27:25.948Z,-14.91
2023-04-03T20:32:33.650Z,-14.97
2023-04-03T20:37:38.587Z,-15.27
2023-04-03T20:42:43.492Z,-15.49
2023-04-03T20:47:46.983Z,-15.56
2023-04-03T20:52:50.372Z,-15.49
2023-04-03T20:58:00.678Z,-15.56
2023-04-03T21:03:04.213Z,-15.68
2023-04-03T21:08:26.473Z,-15.61
2023-04-03T21:13:48.619Z,-15.85
2023-04-03T21:19:03.920Z,-16.03
2023-04-03T21:24:09.964Z,-16.08
2023-04-03T21:29:13.901Z,-16.26
2023-04-03T21:34:19.790Z,-16.30
2023-04-03T21:39:23.182Z,-16.33
2023-04-03T21:44:28.912Z,-16.39
